Cayman Brac, Cayman Islands
Current Conditions -  °F | °C
As of 9:53 AM on Friday 24 Oct 2014 (Local Time) from MWCR Reporting Station
Few Clouds Few Clouds  
Wind Chill: 84°   Ceiling: Unl
Heat Index: 98°   Visibility: 6mi
Dew Point: 81°   Wind: 8mph
Humidity: 89%   Direction: 180°S
Pressure: 29.88"   Gusts: NA
Location:  19.72°N, 79.81°W
Report Text: MWCR 241453Z 18007KT 150V220 9999 FEW014 29/27 Q1012 NOSIG
Loading
Personal Weather Stations






























Interactive Weather Map
Tropical Storm Tracking
New forecast layout! Learn more

10-Day Weather Forecast

Advertisements
Track Severe Weather on mobile